createdAt,value
2024-03-05T00:00:12.209Z,26.80
2024-03-05T00:02:40.124Z,25.20
2024-03-05T00:05:08.778Z,11.57
2024-03-05T00:07:37.049Z,16.98
2024-03-05T00:10:08.642Z,11.20
2024-03-05T00:12:35.599Z,19.45
2024-03-05T00:15:03.031Z,11.98
2024-03-05T00:17:29.765Z,12.85
2024-03-05T00:19:56.556Z,19.50
2024-03-05T00:22:23.401Z,15.05
2024-03-05T00:24:50.109Z,12.00
2024-03-05T00:27:16.782Z,8.43
2024-03-05T00:29:43.573Z,9.85
2024-03-05T00:32:10.357Z,8.35
2024-03-05T00:34:37.038Z,12.25
2024-03-05T00:37:03.764Z,7.38
2024-03-05T00:39:30.422Z,4.90
2024-03-05T00:41:57.086Z,8.38
2024-03-05T00:44:23.719Z,7.03
2024-03-05T00:46:50.529Z,6.85
2024-03-05T00:49:18.175Z,9.25
2024-03-05T00:51:44.928Z,5.60
2024-03-05T00:54:13.513Z,8.20
2024-03-05T00:56:40.217Z,5.82
2024-03-05T00:59:06.866Z,10.60
2024-03-05T01:01:35.044Z,8.75
2024-03-05T01:04:01.714Z,6.18
2024-03-05T01:06:28.501Z,7.93
2024-03-05T01:08:55.181Z,16.75
2024-03-05T01:11:21.920Z,7.57
2024-03-05T01:13:48.711Z,8.27
2024-03-05T01:16:15.489Z,12.02
2024-03-05T01:18:43.188Z,9.63
2024-03-05T01:21:09.945Z,11.52
2024-03-05T01:23:36.719Z,13.00
2024-03-05T01:26:04.276Z,11.60
2024-03-05T01:28:31.329Z,11.10
2024-03-05T01:31:00.480Z,8.38
2024-03-05T01:33:27.489Z,11.05
2024-03-05T01:35:54.243Z,12.93
2024-03-05T01:38:21.855Z,13.73
2024-03-05T01:40:48.734Z,12.07
2024-03-05T01:43:16.636Z,12.68
2024-03-05T01:45:44.104Z,10.68
2024-03-05T01:48:13.187Z,9.23
2024-03-05T01:50:40.129Z,5.60
2024-03-05T01:53:09.826Z,9.30
2024-03-05T01:55:38.991Z,13.30
2024-03-05T01:58:07.382Z,7.70
2024-03-05T02:00:37.565Z,10.80
2024-03-05T02:03:04.448Z,11.15
2024-03-05T02:05:31.193Z,10.52
2024-03-05T02:07:58.950Z,8.43
2024-03-05T02:10:26.159Z,14.70
2024-03-05T02:12:53.498Z,10.85
2024-03-05T02:15:20.870Z,11.43
2024-03-05T02:17:47.615Z,12.70
2024-03-05T02:20:15.144Z,9.93
2024-03-05T02:22:42.880Z,4.57
2024-03-05T02:25:11.013Z,3.70
2024-03-05T02:27:39.462Z,5.22
2024-03-05T02:30:11.735Z,5.05
2024-03-05T02:32:43.010Z,3.60
2024-03-05T02:35:11.063Z,4.60
2024-03-05T02:37:42.130Z,2.38
2024-03-05T02:40:10.212Z,8.73
2024-03-05T02:42:37.883Z,8.00
2024-03-05T02:45:08.679Z,6.18
2024-03-05T02:47:37.488Z,7.85
2024-03-05T02:52:36.989Z,8.43
2024-03-05T02:55:04.446Z,7.33
2024-03-05T02:57:31.047Z,8.65
2024-03-05T02:59:57.950Z,7.03
2024-03-05T03:02:24.907Z,11.75
2024-03-05T03:04:52.909Z,9.38
2024-03-05T03:07:19.998Z,12.10
2024-03-05T03:09:47.755Z,17.05
2024-03-05T03:12:14.521Z,12.32
2024-03-05T03:14:45.816Z,11.48
2024-03-05T03:17:12.835Z,11.55
2024-03-05T03:19:39.601Z,11.23
2024-03-05T03:22:06.460Z,11.82
2024-03-05T03:24:33.120Z,13.68
2024-03-05T03:26:59.993Z,8.65
2024-03-05T03:29:27.839Z,15.00
2024-03-05T03:31:56.555Z,20.23
2024-03-05T03:34:23.730Z,13.32
2024-03-05T03:36:50.471Z,16.58
2024-03-05T03:39:25.252Z,12.10
2024-03-05T03:41:54.747Z,10.18
2024-03-05T03:44:23.920Z,10.65
2024-03-05T03:46:51.934Z,13.77
2024-03-05T03:49:25.292Z,11.52
2024-03-05T03:51:55.447Z,11.65
2024-03-05T03:54:25.729Z,7.97
2024-03-05T03:56:53.297Z,8.75
2024-03-05T03:59:21.486Z,13.77
2024-03-05T04:01:51.897Z,10.70
2024-03-05T04:04:18.838Z,10.63
2024-03-05T04:06:49.331Z,7.22
2024-03-05T04:09:16.180Z,10.05
2024-03-05T04:11:44.008Z,14.00
2024-03-05T04:14:11.033Z,8.53
2024-03-05T04:16:41.708Z,14.82
2024-03-05T04:19:08.716Z,11.95
2024-03-05T04:21:42.866Z,15.38
2024-03-05T04:24:15.906Z,12.23
2024-03-05T04:26:43.457Z,11.82
2024-03-05T04:29:17.757Z,12.55
2024-03-05T04:31:50.692Z,19.70
2024-03-05T04:34:21.589Z,20.40
2024-03-05T04:36:55.585Z,19.15
2024-03-05T04:39:23.861Z,14.07
2024-03-05T04:41:50.546Z,11.02
2024-03-05T04:44:17.445Z,14.20
2024-03-05T04:46:44.172Z,19.15
2024-03-05T04:49:10.909Z,14.32
2024-03-05T04:51:38.364Z,15.05
2024-03-05T04:54:05.407Z,16.73
2024-03-05T04:56:32.335Z,16.40
2024-03-05T04:58:59.321Z,17.88
2024-03-05T05:01:26.221Z,15.73
2024-03-05T05:03:53.076Z,14.88
2024-03-05T05:06:19.823Z,12.82
2024-03-05T05:08:47.180Z,16.02
2024-03-05T05:11:14.001Z,13.23
2024-03-05T05:13:44.438Z,11.07
2024-03-05T05:16:12.897Z,10.30
2024-03-05T05:18:39.981Z,13.70
2024-03-05T05:21:08.932Z,14.30
2024-03-05T05:23:36.153Z,13.35
2024-03-05T05:26:03.489Z,7.63
2024-03-05T05:28:30.415Z,9.32
2024-03-05T05:30:57.198Z,12.40
2024-03-05T05:33:23.895Z,10.40
2024-03-05T05:35:51.606Z,9.00
2024-03-05T05:38:18.390Z,12.23
2024-03-05T05:40:45.093Z,20.30
2024-03-05T05:43:12.689Z,10.82
2024-03-05T05:45:39.352Z,11.43
2024-03-05T05:48:06.738Z,20.17
2024-03-05T05:50:33.658Z,17.63
2024-03-05T05:53:00.963Z,13.75
2024-03-05T05:55:28.517Z,10.63
2024-03-05T05:57:56.988Z,23.02
2024-03-05T06:00:34.504Z,20.02
2024-03-05T06:03:02.433Z,20.77
2024-03-05T06:05:32.845Z,19.55
2024-03-05T06:08:01.246Z,12.73
2024-03-05T06:10:30.927Z,19.70
2024-03-05T06:12:58.294Z,17.77
2024-03-05T06:15:25.424Z,20.42
2024-03-05T06:17:53.190Z,15.07
2024-03-05T06:20:20.053Z,15.55
2024-03-05T06:22:47.292Z,19.88
2024-03-05T06:25:18.179Z,16.92
2024-03-05T06:27:45.454Z,11.57
2024-03-05T06:30:19.307Z,14.80
2024-03-05T06:32:50.255Z,16.85
2024-03-05T06:35:19.176Z,20.10
2024-03-05T06:40:15.258Z,11.82
2024-03-05T06:42:43.261Z,23.25
2024-03-05T06:45:10.239Z,21.57
2024-03-05T06:47:40.723Z,14.23
2024-03-05T06:50:09.770Z,14.32
2024-03-05T06:52:55.075Z,11.73
2024-03-05T06:55:40.391Z,14.70
2024-03-05T06:58:08.506Z,11.02
2024-03-05T07:00:35.560Z,12.35
2024-03-05T07:03:06.378Z,11.93
2024-03-05T07:05:33.770Z,9.52
2024-03-05T07:08:03.601Z,7.00
2024-03-05T07:10:30.425Z,1.88
2024-03-05T07:12:57.492Z,6.20
2024-03-05T07:15:24.690Z,4.75
2024-03-05T07:17:51.532Z,4.75
2024-03-05T07:20:23.866Z,6.97
2024-03-05T07:22:52.606Z,7.55
2024-03-05T07:25:19.365Z,7.10
2024-03-05T07:27:48.082Z,12.05
2024-03-05T07:30:19.055Z,8.77
2024-03-05T07:32:49.601Z,6.25
2024-03-05T07:35:18.894Z,5.63
2024-03-05T07:37:46.788Z,6.38
2024-03-05T07:40:21.396Z,7.72
2024-03-05T07:42:53.192Z,5.63
2024-03-05T07:45:23.906Z,5.68
2024-03-05T07:47:51.709Z,9.77
2024-03-05T07:50:18.661Z,13.90
2024-03-05T07:52:47.841Z,12.80
2024-03-05T07:55:21.650Z,7.65
2024-03-05T07:57:58.025Z,7.30
2024-03-05T08:00:25.704Z,11.18
2024-03-05T08:02:56.210Z,12.10
2024-03-05T08:05:24.554Z,9.68
2024-03-05T08:07:52.687Z,14.20
2024-03-05T08:10:19.521Z,10.77
2024-03-05T08:12:48.257Z,20.38
2024-03-05T08:17:48.237Z,10.00
2024-03-05T08:20:19.955Z,9.00
2024-03-05T08:22:48.059Z,10.68
2024-03-05T08:25:17.341Z,11.18
2024-03-05T08:27:46.014Z,14.85
2024-03-05T08:30:17.585Z,9.32
2024-03-05T08:32:45.137Z,9.48
2024-03-05T08:35:15.437Z,6.82
2024-03-05T08:37:47.627Z,7.85
2024-03-05T08:40:16.621Z,10.15
2024-03-05T08:42:47.772Z,6.35
2024-03-05T08:45:25.333Z,10.45
2024-03-05T08:47:53.979Z,13.65
2024-03-05T08:50:22.087Z,9.45
2024-03-05T08:52:50.389Z,12.98
2024-03-05T08:55:19.481Z,14.13
2024-03-05T08:57:46.966Z,16.33
2024-03-05T09:00:28.114Z,14.52
2024-03-05T09:03:04.247Z,10.80
2024-03-05T09:05:33.008Z,11.60
2024-03-05T09:10:27.060Z,13.38
2024-03-05T09:12:55.984Z,10.25
2024-03-05T09:15:22.707Z,13.45
2024-03-05T09:17:49.672Z,12.32
2024-03-05T09:20:16.702Z,8.10
2024-03-05T09:22:46.329Z,14.13
2024-03-05T09:25:14.460Z,12.40
2024-03-05T09:27:48.261Z,11.00
2024-03-05T09:30:19.781Z,11.82
2024-03-05T09:32:49.154Z,13.90
2024-03-05T09:35:17.074Z,13.45
2024-03-05T09:37:59.276Z,21.25
2024-03-05T09:40:26.226Z,11.52
2024-03-05T09:42:59.636Z,15.45
2024-03-05T09:45:29.930Z,9.35
2024-03-05T09:47:56.869Z,14.75
2024-03-05T09:50:28.556Z,11.00
2024-03-05T09:52:55.423Z,15.00
2024-03-05T09:55:23.597Z,7.18
2024-03-05T09:57:50.590Z,15.55
2024-03-05T10:00:20.668Z,9.82
2024-03-05T10:02:52.751Z,14.73
2024-03-05T10:05:20.486Z,9.88
2024-03-05T10:07:50.865Z,12.05
2024-03-05T10:10:22.964Z,15.57
2024-03-05T10:12:53.904Z,7.93
2024-03-05T10:15:24.765Z,9.70
2024-03-05T10:17:54.750Z,10.07
2024-03-05T10:20:35.605Z,7.97
2024-03-05T10:23:05.316Z,11.23
2024-03-05T10:25:36.956Z,11.18
2024-03-05T10:28:04.839Z,14.95
2024-03-05T10:30:36.442Z,17.63
2024-03-05T10:33:05.353Z,19.85
2024-03-05T10:38:13.569Z,13.98
2024-03-05T10:40:41.452Z,11.48
2024-03-05T10:43:09.886Z,10.25
2024-03-05T10:45:42.210Z,16.23
2024-03-05T10:48:13.703Z,13.18
2024-03-05T10:50:51.027Z,10.77
2024-03-05T10:53:18.413Z,10.80
2024-03-05T10:55:46.337Z,14.35
2024-03-05T10:58:15.204Z,12.18
2024-03-05T11:00:45.258Z,10.55
2024-03-05T11:03:16.003Z,20.00
2024-03-05T11:05:48.989Z,20.92
2024-03-05T11:08:22.465Z,14.55
2024-03-05T11:10:54.482Z,16.30
2024-03-05T11:13:22.860Z,16.35
2024-03-05T11:15:52.645Z,13.95
2024-03-05T11:18:36.580Z,14.82
2024-03-05T11:21:13.916Z,19.70
2024-03-05T11:23:44.284Z,12.60
2024-03-05T11:26:22.643Z,16.48
2024-03-05T11:28:50.377Z,14.10
2024-03-05T11:31:20.790Z,12.32
2024-03-05T11:34:04.055Z,11.45
2024-03-05T11:36:35.481Z,15.82
2024-03-05T11:39:09.549Z,15.30
2024-03-05T11:41:39.032Z,12.65
2024-03-05T11:44:06.623Z,9.93
2024-03-05T11:46:53.681Z,18.67
2024-03-05T11:49:21.379Z,13.75
2024-03-05T11:51:48.992Z,9.88
2024-03-05T11:54:20.805Z,16.70
2024-03-05T11:57:00.808Z,14.82
2024-03-05T11:59:34.724Z,18.23
2024-03-05T12:02:01.626Z,14.75
2024-03-05T12:04:28.411Z,13.45
2024-03-05T12:07:08.224Z,10.60
2024-03-05T12:09:39.409Z,9.07
2024-03-05T12:12:07.568Z,11.90
2024-03-05T12:14:36.145Z,16.45
2024-03-05T12:17:05.688Z,10.10
2024-03-05T12:19:32.991Z,11.40
2024-03-05T12:22:01.259Z,14.88
2024-03-05T12:24:32.533Z,16.20
2024-03-05T12:27:00.276Z,15.18
2024-03-05T12:29:34.983Z,13.18
2024-03-05T12:32:14.449Z,12.77
2024-03-05T12:34:47.845Z,14.88
2024-03-05T12:37:16.652Z,11.57
2024-03-05T12:42:14.752Z,16.30
2024-03-05T12:44:42.822Z,13.35
2024-03-05T12:47:22.465Z,14.30
2024-03-05T12:49:52.177Z,12.60
2024-03-05T12:52:27.917Z,13.93
2024-03-05T12:55:04.432Z,13.07
2024-03-05T12:57:33.474Z,12.20
2024-03-05T13:00:02.401Z,12.52
2024-03-05T13:02:29.638Z,12.95
2024-03-05T13:04:58.940Z,11.20
2024-03-05T13:07:26.993Z,13.27
2024-03-05T13:09:55.547Z,22.75
2024-03-05T13:12:22.388Z,18.52
2024-03-05T13:14:52.184Z,18.77
2024-03-05T13:17:22.422Z,20.48
2024-03-05T13:19:49.199Z,12.85
2024-03-05T13:22:21.800Z,23.70
2024-03-05T13:24:48.832Z,15.23
2024-03-05T13:27:15.493Z,21.67
2024-03-05T13:29:42.233Z,15.73
2024-03-05T13:32:08.906Z,17.20
2024-03-05T13:34:35.781Z,20.27
2024-03-05T13:37:02.521Z,13.85
2024-03-05T13:39:30.600Z,22.63
2024-03-05T13:41:57.460Z,15.77
2024-03-05T13:44:24.811Z,15.43
2024-03-05T13:46:52.985Z,15.30
2024-03-05T13:49:21.789Z,18.33
2024-03-05T13:54:20.531Z,24.42
2024-03-05T13:56:47.476Z,19.60
2024-03-05T13:59:15.171Z,16.13
2024-03-05T14:01:44.912Z,16.70
2024-03-05T14:04:11.775Z,8.85
2024-03-05T14:06:42.650Z,12.32
2024-03-05T14:09:12.696Z,12.48
2024-03-05T14:11:49.089Z,15.57
2024-03-05T14:14:21.470Z,13.27
2024-03-05T14:16:48.642Z,12.02
2024-03-05T14:19:15.547Z,18.08
2024-03-05T14:21:42.199Z,14.75
2024-03-05T14:24:09.003Z,16.67
2024-03-05T14:26:35.804Z,15.70
2024-03-05T14:29:05.214Z,16.08
2024-03-05T14:31:34.180Z,11.05
2024-03-05T14:34:01.145Z,15.38
2024-03-05T14:36:33.092Z,16.15
2024-03-05T14:39:02.929Z,12.85
2024-03-05T14:41:29.746Z,14.65
2024-03-05T14:43:56.468Z,11.85
2024-03-05T14:46:23.743Z,14.15
2024-03-05T14:48:50.609Z,13.50
2024-03-05T14:51:17.289Z,12.35
2024-03-05T14:53:44.016Z,14.15
2024-03-05T14:56:10.945Z,21.40
2024-03-05T14:58:38.858Z,18.50
2024-03-05T15:01:05.982Z,14.93
2024-03-05T15:03:33.430Z,16.30
2024-03-05T15:06:00.199Z,18.70
2024-03-05T15:08:26.911Z,20.55
2024-03-05T15:10:53.773Z,18.38
2024-03-05T15:13:20.809Z,14.95
2024-03-05T15:15:49.410Z,22.40
2024-03-05T15:18:16.319Z,19.40
2024-03-05T15:20:45.325Z,16.90
2024-03-05T15:23:13.764Z,20.23
2024-03-05T15:25:40.599Z,16.60
2024-03-05T15:28:09.507Z,17.00
2024-03-05T15:30:36.936Z,13.82
2024-03-05T15:33:05.591Z,15.50
2024-03-05T15:37:59.955Z,12.07
2024-03-05T15:40:27.927Z,12.05
2024-03-05T15:42:56.635Z,18.25
2024-03-05T15:45:30.973Z,14.55
2024-03-05T15:47:59.723Z,12.10
2024-03-05T15:50:31.117Z,13.88
2024-03-05T15:53:04.221Z,14.70
2024-03-05T15:55:31.640Z,16.77
2024-03-05T15:58:02.377Z,19.13
2024-03-05T16:00:39.745Z,20.98
2024-03-05T16:03:08.697Z,17.98
2024-03-05T16:08:22.245Z,23.73
2024-03-05T16:10:50.054Z,17.58
2024-03-05T16:13:17.855Z,16.40
2024-03-05T16:15:47.160Z,23.40
2024-03-05T16:18:15.067Z,18.38
2024-03-05T16:20:41.802Z,15.80
2024-03-05T16:23:09.195Z,19.60
2024-03-05T16:25:40.767Z,22.15
2024-03-05T16:28:10.898Z,17.15
2024-03-05T16:30:39.258Z,17.15
2024-03-05T16:33:07.184Z,13.23
2024-03-05T16:35:37.205Z,19.20
2024-03-05T16:38:05.915Z,21.23
2024-03-05T16:40:36.980Z,32.40
2024-03-05T16:43:06.705Z,40.33
2024-03-05T16:45:35.679Z,21.52
2024-03-05T16:48:06.970Z,29.65
2024-03-05T16:50:34.293Z,29.83
2024-03-05T16:53:02.150Z,50.30
2024-03-05T16:55:29.267Z,22.95
2024-03-05T16:58:02.978Z,17.83
2024-03-05T17:00:42.424Z,26.58
2024-03-05T17:03:12.806Z,16.02
2024-03-05T17:05:42.052Z,20.55
2024-03-05T17:08:15.722Z,75.20
2024-03-05T17:10:45.783Z,23.98
2024-03-05T17:13:19.911Z,20.38
2024-03-05T17:15:52.601Z,26.40
2024-03-05T17:18:20.457Z,20.52
2024-03-05T17:20:48.155Z,27.80
2024-03-05T17:23:23.156Z,35.97
2024-03-05T17:25:52.999Z,23.08
2024-03-05T17:28:20.585Z,16.75
2024-03-05T17:30:49.692Z,16.27
2024-03-05T17:33:17.285Z,18.27
2024-03-05T17:35:44.263Z,21.80
2024-03-05T17:38:14.162Z,22.30
2024-03-05T17:40:44.487Z,16.17
2024-03-05T17:43:11.242Z,19.38
2024-03-05T17:45:37.961Z,17.05
2024-03-05T17:48:08.817Z,24.45
2024-03-05T17:50:36.573Z,26.52
2024-03-05T17:53:06.878Z,17.80
2024-03-05T17:55:36.015Z,25.85
2024-03-05T17:58:05.567Z,22.25
2024-03-05T18:00:43.009Z,32.38
2024-03-05T18:03:11.971Z,14.85
2024-03-05T18:05:39.182Z,25.92
2024-03-05T18:08:06.076Z,19.92
2024-03-05T18:10:36.306Z,19.35
2024-03-05T18:13:06.285Z,27.45
2024-03-05T18:15:33.675Z,33.53
2024-03-05T18:18:01.231Z,61.83
2024-03-05T18:20:30.222Z,25.77
2024-03-05T18:23:00.920Z,23.85
2024-03-05T18:25:35.653Z,21.60
2024-03-05T18:28:03.776Z,18.08
2024-03-05T18:30:34.303Z,21.40
2024-03-05T18:33:07.967Z,22.88
2024-03-05T18:35:36.083Z,15.25
2024-03-05T18:38:16.529Z,23.80
2024-03-05T18:40:51.460Z,22.27
2024-03-05T18:43:20.739Z,19.15
2024-03-05T18:45:47.519Z,23.13
2024-03-05T18:48:14.540Z,24.38
2024-03-05T18:50:41.488Z,20.83
2024-03-05T18:53:09.363Z,27.90
2024-03-05T18:55:37.755Z,25.83
2024-03-05T18:58:08.105Z,28.42
2024-03-05T19:00:38.072Z,31.25
2024-03-05T19:03:05.990Z,39.63
2024-03-05T19:05:34.636Z,30.42
2024-03-05T19:10:28.464Z,37.30
2024-03-05T19:12:55.418Z,41.42
2024-03-05T19:15:23.807Z,25.95
2024-03-05T19:17:50.785Z,20.33
2024-03-05T19:20:18.010Z,18.20
2024-03-05T19:22:44.818Z,16.90
2024-03-05T19:25:12.965Z,20.35
2024-03-05T19:27:42.634Z,28.13
2024-03-05T19:30:18.345Z,14.57
2024-03-05T19:32:46.507Z,25.23
2024-03-05T19:35:18.576Z,24.33
2024-03-05T19:37:48.429Z,21.02
2024-03-05T19:40:20.585Z,22.80
2024-03-05T19:42:57.219Z,26.85
2024-03-05T19:45:25.043Z,25.35
2024-03-05T19:47:52.333Z,35.47
2024-03-05T19:50:19.745Z,43.20
2024-03-05T19:52:49.432Z,41.13
2024-03-05T19:55:16.524Z,44.35
2024-03-05T19:57:44.488Z,43.28
2024-03-05T20:00:24.802Z,38.13
2024-03-05T20:02:52.784Z,42.28
2024-03-05T20:05:20.893Z,40.60
2024-03-05T20:07:47.834Z,34.33
2024-03-05T20:10:15.752Z,36.28
2024-03-05T20:12:42.510Z,40.20
2024-03-05T20:15:10.194Z,41.08
2024-03-05T20:17:39.923Z,43.38
2024-03-05T20:20:10.297Z,38.90
2024-03-05T20:22:41.306Z,35.55
2024-03-05T20:25:08.512Z,43.08
2024-03-05T20:27:35.376Z,47.00
2024-03-05T20:30:02.485Z,54.72
2024-03-05T20:32:32.369Z,53.63
2024-03-05T20:35:00.730Z,55.88
2024-03-05T20:37:28.926Z,55.67
2024-03-05T20:39:58.327Z,37.75
2024-03-05T20:42:24.991Z,41.05
2024-03-05T20:44:51.692Z,40.25
2024-03-05T20:47:18.556Z,36.72
2024-03-05T20:49:46.808Z,42.28
2024-03-05T20:52:13.599Z,64.78
2024-03-05T20:54:40.339Z,52.20
2024-03-05T20:57:07.085Z,45.17
2024-03-05T20:59:35.280Z,48.67
2024-03-05T21:02:11.042Z,43.53
2024-03-05T21:04:38.761Z,44.70
2024-03-05T21:07:06.386Z,36.15
2024-03-05T21:09:34.596Z,50.63
2024-03-05T21:12:01.747Z,47.43
2024-03-05T21:14:28.717Z,38.38
2024-03-05T21:16:55.483Z,44.72
2024-03-05T21:19:23.272Z,48.75
2024-03-05T21:21:50.605Z,39.95
2024-03-05T21:24:17.346Z,52.35
2024-03-05T21:26:54.735Z,52.22
2024-03-05T21:29:30.671Z,37.60
2024-03-05T21:31:57.587Z,42.22
2024-03-05T21:34:24.326Z,37.15
2024-03-05T21:36:51.018Z,39.05
2024-03-05T21:39:17.724Z,31.50
2024-03-05T21:41:45.649Z,37.65
2024-03-05T21:44:17.287Z,36.00
2024-03-05T21:46:49.769Z,31.98
2024-03-05T21:49:16.601Z,35.85
2024-03-05T21:51:43.350Z,38.28
2024-03-05T21:54:10.012Z,34.88
2024-03-05T21:56:36.752Z,31.48
2024-03-05T21:59:04.755Z,32.30
2024-03-05T22:01:31.600Z,37.72
2024-03-05T22:03:58.253Z,40.40
2024-03-05T22:06:25.248Z,27.25
2024-03-05T22:08:52.576Z,38.65
2024-03-05T22:11:19.570Z,37.45
2024-03-05T22:13:46.326Z,36.72
2024-03-05T22:16:13.054Z,40.40
2024-03-05T22:18:40.481Z,38.38
2024-03-05T22:21:07.880Z,41.95
2024-03-05T22:23:35.009Z,37.75
2024-03-05T22:26:02.219Z,32.88
2024-03-05T22:28:31.485Z,38.78
2024-03-05T22:30:59.385Z,37.15
2024-03-05T22:33:26.113Z,37.67
2024-03-05T22:35:53.436Z,43.70
2024-03-05T22:38:20.134Z,41.90
2024-03-05T22:40:46.950Z,28.75
2024-03-05T22:43:15.205Z,37.72
2024-03-05T22:45:41.878Z,33.47
2024-03-05T22:48:08.727Z,37.65
2024-03-05T22:50:35.362Z,37.63
2024-03-05T22:53:03.224Z,45.22
2024-03-05T22:55:29.986Z,31.43
2024-03-05T22:57:56.742Z,39.90
2024-03-05T23:00:24.471Z,34.90
2024-03-05T23:02:54.622Z,32.70
2024-03-05T23:05:22.183Z,38.78
2024-03-05T23:07:49.307Z,40.22
2024-03-05T23:10:17.583Z,35.42
2024-03-05T23:12:45.177Z,33.85
2024-03-05T23:15:16.500Z,40.22
2024-03-05T23:17:44.300Z,40.53
2024-03-05T23:20:12.414Z,39.65
2024-03-05T23:22:40.184Z,42.63
2024-03-05T23:25:08.477Z,32.83
2024-03-05T23:27:36.039Z,37.05
2024-03-05T23:30:04.447Z,43.95
2024-03-05T23:32:32.637Z,41.65
2024-03-05T23:35:03.405Z,38.83
2024-03-05T23:37:30.193Z,41.05
2024-03-05T23:39:58.124Z,30.17
2024-03-05T23:42:25.889Z,44.93
2024-03-05T23:44:53.761Z,46.63
2024-03-05T23:47:20.738Z,39.33
2024-03-05T23:49:47.435Z,34.97
2024-03-05T23:52:14.176Z,35.38
2024-03-05T23:54:42.668Z,33.63
2024-03-05T23:57:10.339Z,39.42
2024-03-05T23:59:40.531Z,40.80
